sensor_id;sensor_type;location;lat;lon;timestamp;P1;durP1;ratioP1;P2;durP2;ratioP2
24151;SDS011;12311;50.866;4.332;2022-11-15T00:01:36;9.80;;;4.82;;
24151;SDS011;12311;50.866;4.332;2022-11-15T00:04:05;16.48;;;6.75;;
24151;SDS011;12311;50.866;4.332;2022-11-15T00:06:31;13.63;;;5.20;;
24151;SDS011;12311;50.866;4.332;2022-11-15T00:08:57;14.73;;;6.43;;
24151;SDS011;12311;50.866;4.332;2022-11-15T00:11:24;12.30;;;5.68;;
24151;SDS011;12311;50.866;4.332;2022-11-15T00:13:50;21.48;;;5.35;;
24151;SDS011;12311;50.866;4.332;2022-11-15T00:16:15;16.63;;;5.97;;
24151;SDS011;12311;50.866;4.332;2022-11-15T00:18:41;13.13;;;5.57;;
24151;SDS011;12311;50.866;4.332;2022-11-15T00:21:08;17.10;;;6.53;;
24151;SDS011;12311;50.866;4.332;2022-11-15T00:23:36;11.50;;;5.22;;
24151;SDS011;12311;50.866;4.332;2022-11-15T00:26:02;12.52;;;5.90;;
24151;SDS011;12311;50.866;4.332;2022-11-15T00:28:28;13.73;;;5.63;;
24151;SDS011;12311;50.866;4.332;2022-11-15T00:30:59;9.98;;;4.63;;
24151;SDS011;12311;50.866;4.332;2022-11-15T00:33:26;13.48;;;5.97;;
24151;SDS011;12311;50.866;4.332;2022-11-15T00:35:51;13.93;;;5.78;;
24151;SDS011;12311;50.866;4.332;2022-11-15T00:38:17;16.65;;;5.88;;
24151;SDS011;12311;50.866;4.332;2022-11-15T00:40:43;12.75;;;6.30;;
24151;SDS011;12311;50.866;4.332;2022-11-15T00:43:08;12.18;;;5.18;;
24151;SDS011;12311;50.866;4.332;2022-11-15T00:45:34;19.05;;;5.82;;
24151;SDS011;12311;50.866;4.332;2022-11-15T00:48:00;14.55;;;5.40;;
24151;SDS011;12311;50.866;4.332;2022-11-15T00:50:25;21.38;;;6.32;;
24151;SDS011;12311;50.866;4.332;2022-11-15T00:52:51;14.27;;;5.93;;
24151;SDS011;12311;50.866;4.332;2022-11-15T00:55:17;15.45;;;6.30;;
24151;SDS011;12311;50.866;4.332;2022-11-15T00:57:43;13.32;;;6.78;;
24151;SDS011;12311;50.866;4.332;2022-11-15T01:00:10;14.73;;;5.80;;
24151;SDS011;12311;50.866;4.332;2022-11-15T01:02:36;16.70;;;5.78;;
24151;SDS011;12311;50.866;4.332;2022-11-15T01:05:02;15.65;;;5.93;;
24151;SDS011;12311;50.866;4.332;2022-11-15T01:07:28;17.35;;;5.38;;
24151;SDS011;12311;50.866;4.332;2022-11-15T01:09:53;16.45;;;5.97;;
24151;SDS011;12311;50.866;4.332;2022-11-15T01:12:19;12.57;;;5.57;;
24151;SDS011;12311;50.866;4.332;2022-11-15T01:14:44;14.63;;;6.25;;
24151;SDS011;12311;50.866;4.332;2022-11-15T01:17:10;12.38;;;4.70;;
24151;SDS011;12311;50.866;4.332;2022-11-15T01:19:36;25.02;;;7.40;;
24151;SDS011;12311;50.866;4.332;2022-11-15T01:22:01;16.25;;;5.80;;
24151;SDS011;12311;50.866;4.332;2022-11-15T01:24:27;16.92;;;6.22;;
24151;SDS011;12311;50.866;4.332;2022-11-15T01:26:52;16.50;;;6.40;;
24151;SDS011;12311;50.866;4.332;2022-11-15T01:29:18;14.75;;;5.13;;
24151;SDS011;12311;50.866;4.332;2022-11-15T01:31:44;18.25;;;6.13;;
24151;SDS011;12311;50.866;4.332;2022-11-15T01:34:09;16.27;;;5.82;;
24151;SDS011;12311;50.866;4.332;2022-11-15T01:36:35;14.10;;;6.75;;
24151;SDS011;12311;50.866;4.332;2022-11-15T01:39:01;12.95;;;5.30;;
24151;SDS011;12311;50.866;4.332;2022-11-15T01:41:28;13.95;;;6.32;;
24151;SDS011;12311;50.866;4.332;2022-11-15T01:43:57;15.38;;;5.85;;
24151;SDS011;12311;50.866;4.332;2022-11-15T01:46:44;14.70;;;6.60;;
24151;SDS011;12311;50.866;4.332;2022-11-15T01:49:16;9.98;;;5.35;;
24151;SDS011;12311;50.866;4.332;2022-11-15T01:51:45;16.48;;;5.70;;
24151;SDS011;12311;50.866;4.332;2022-11-15T01:54:12;14.75;;;5.53;;
24151;SDS011;12311;50.866;4.332;2022-11-15T01:56:44;17.98;;;5.63;;
24151;SDS011;12311;50.866;4.332;2022-11-15T01:59:15;14.82;;;5.35;;
24151;SDS011;12311;50.866;4.332;2022-11-15T02:01:41;12.55;;;4.88;;
24151;SDS011;12311;50.866;4.332;2022-11-15T02:04:17;9.73;;;4.18;;
24151;SDS011;12311;50.866;4.332;2022-11-15T02:06:48;9.52;;;4.38;;
24151;SDS011;12311;50.866;4.332;2022-11-15T02:09:14;11.05;;;5.38;;
24151;SDS011;12311;50.866;4.332;2022-11-15T02:11:40;13.65;;;5.32;;
24151;SDS011;12311;50.866;4.332;2022-11-15T02:14:06;8.75;;;4.60;;
24151;SDS011;12311;50.866;4.332;2022-11-15T02:22:06;12.90;;;4.55;;
24151;SDS011;12311;50.866;4.332;2022-11-15T02:36:00;10.95;;;5.22;;
24151;SDS011;12311;50.866;4.332;2022-11-15T02:38:33;13.55;;;4.43;;
24151;SDS011;12311;50.866;4.332;2022-11-15T02:41:11;12.63;;;4.68;;
24151;SDS011;12311;50.866;4.332;2022-11-15T02:46:31;11.32;;;5.63;;
24151;SDS011;12311;50.866;4.332;2022-11-15T02:49:23;9.63;;;5.15;;
24151;SDS011;12311;50.866;4.332;2022-11-15T02:51:51;11.07;;;5.80;;
24151;SDS011;12311;50.866;4.332;2022-11-15T02:54:20;9.98;;;4.13;;
24151;SDS011;12311;50.866;4.332;2022-11-15T02:56:51;13.63;;;6.00;;
24151;SDS011;12311;50.866;4.332;2022-11-15T02:59:38;9.27;;;4.55;;
24151;SDS011;12311;50.866;4.332;2022-11-15T03:05:37;10.68;;;4.93;;
24151;SDS011;12311;50.866;4.332;2022-11-15T03:11:31;17.25;;;4.05;;
24151;SDS011;12311;50.866;4.332;2022-11-15T03:14:02;8.93;;;4.22;;
24151;SDS011;12311;50.866;4.332;2022-11-15T03:22:04;10.50;;;3.88;;
24151;SDS011;12311;50.866;4.332;2022-11-15T03:24:34;7.50;;;4.22;;
24151;SDS011;12311;50.866;4.332;2022-11-15T03:27:02;7.43;;;3.63;;
24151;SDS011;12311;50.866;4.332;2022-11-15T03:29:32;7.30;;;3.13;;
24151;SDS011;12311;50.866;4.332;2022-11-15T03:32:03;9.38;;;3.75;;
24151;SDS011;12311;50.866;4.332;2022-11-15T03:34:53;10.82;;;4.15;;
24151;SDS011;12311;50.866;4.332;2022-11-15T03:37:21;10.98;;;4.15;;
24151;SDS011;12311;50.866;4.332;2022-11-15T03:39:51;12.27;;;4.10;;
24151;SDS011;12311;50.866;4.332;2022-11-15T03:45:17;5.93;;;2.90;;
24151;SDS011;12311;50.866;4.332;2022-11-15T03:48:13;9.98;;;3.13;;
24151;SDS011;12311;50.866;4.332;2022-11-15T03:50:43;7.65;;;3.35;;
24151;SDS011;12311;50.866;4.332;2022-11-15T03:53:10;8.05;;;3.30;;
24151;SDS011;12311;50.866;4.332;2022-11-15T03:55:37;7.75;;;3.28;;
24151;SDS011;12311;50.866;4.332;2022-11-15T03:58:02;5.38;;;2.80;;
24151;SDS011;12311;50.866;4.332;2022-11-15T04:00:28;6.88;;;2.95;;
24151;SDS011;12311;50.866;4.332;2022-11-15T04:02:54;6.32;;;2.53;;
24151;SDS011;12311;50.866;4.332;2022-11-15T04:05:20;11.63;;;3.20;;
24151;SDS011;12311;50.866;4.332;2022-11-15T04:07:45;4.20;;;1.88;;
24151;SDS011;12311;50.866;4.332;2022-11-15T04:10:11;9.05;;;2.53;;
24151;SDS011;12311;50.866;4.332;2022-11-15T04:12:39;4.32;;;2.15;;
24151;SDS011;12311;50.866;4.332;2022-11-15T04:15:11;8.77;;;2.67;;
24151;SDS011;12311;50.866;4.332;2022-11-15T04:17:46;7.20;;;2.72;;
24151;SDS011;12311;50.866;4.332;2022-11-15T04:20:20;7.65;;;2.40;;
24151;SDS011;12311;50.866;4.332;2022-11-15T04:23:08;9.15;;;2.20;;
24151;SDS011;12311;50.866;4.332;2022-11-15T04:26:04;7.90;;;2.30;;
24151;SDS011;12311;50.866;4.332;2022-11-15T04:28:35;5.85;;;2.60;;
24151;SDS011;12311;50.866;4.332;2022-11-15T04:31:20;5.60;;;2.95;;
24151;SDS011;12311;50.866;4.332;2022-11-15T04:33:46;5.60;;;2.30;;
24151;SDS011;12311;50.866;4.332;2022-11-15T04:36:12;3.42;;;2.10;;
24151;SDS011;12311;50.866;4.332;2022-11-15T04:38:56;5.85;;;2.10;;
24151;SDS011;12311;50.866;4.332;2022-11-15T04:41:22;7.28;;;1.80;;
24151;SDS011;12311;50.866;4.332;2022-11-15T04:43:47;9.35;;;2.50;;
24151;SDS011;12311;50.866;4.332;2022-11-15T04:46:13;11.80;;;1.98;;
24151;SDS011;12311;50.866;4.332;2022-11-15T04:48:38;9.02;;;2.40;;
24151;SDS011;12311;50.866;4.332;2022-11-15T04:51:04;4.55;;;2.22;;
24151;SDS011;12311;50.866;4.332;2022-11-15T04:53:30;4.95;;;1.85;;
24151;SDS011;12311;50.866;4.332;2022-11-15T04:55:55;8.20;;;3.13;;
24151;SDS011;12311;50.866;4.332;2022-11-15T04:58:21;4.80;;;2.45;;
24151;SDS011;12311;50.866;4.332;2022-11-15T05:00:46;5.70;;;2.38;;
24151;SDS011;12311;50.866;4.332;2022-11-15T05:03:12;5.30;;;2.05;;
24151;SDS011;12311;50.866;4.332;2022-11-15T05:05:57;4.10;;;2.25;;
24151;SDS011;12311;50.866;4.332;2022-11-15T05:08:23;4.90;;;2.15;;
24151;SDS011;12311;50.866;4.332;2022-11-15T05:10:49;6.38;;;2.17;;
24151;SDS011;12311;50.866;4.332;2022-11-15T05:13:15;7.78;;;2.33;;
24151;SDS011;12311;50.866;4.332;2022-11-15T05:15:41;4.07;;;2.20;;
24151;SDS011;12311;50.866;4.332;2022-11-15T05:18:06;2.63;;;1.85;;
24151;SDS011;12311;50.866;4.332;2022-11-15T05:20:32;3.38;;;2.35;;
24151;SDS011;12311;50.866;4.332;2022-11-15T05:22:58;3.53;;;1.48;;
24151;SDS011;12311;50.866;4.332;2022-11-15T05:25:24;10.60;;;2.28;;
24151;SDS011;12311;50.866;4.332;2022-11-15T05:27:49;4.05;;;1.70;;
24151;SDS011;12311;50.866;4.332;2022-11-15T05:30:15;4.47;;;1.80;;
24151;SDS011;12311;50.866;4.332;2022-11-15T05:32:42;9.45;;;2.45;;
24151;SDS011;12311;50.866;4.332;2022-11-15T05:35:08;6.25;;;1.98;;
24151;SDS011;12311;50.866;4.332;2022-11-15T05:37:40;2.78;;;1.33;;
24151;SDS011;12311;50.866;4.332;2022-11-15T05:40:06;7.25;;;1.92;;
24151;SDS011;12311;50.866;4.332;2022-11-15T05:42:32;6.00;;;1.92;;
24151;SDS011;12311;50.866;4.332;2022-11-15T05:44:58;3.45;;;1.40;;
24151;SDS011;12311;50.866;4.332;2022-11-15T05:47:25;2.22;;;1.55;;
24151;SDS011;12311;50.866;4.332;2022-11-15T05:49:54;3.55;;;1.45;;
24151;SDS011;12311;50.866;4.332;2022-11-15T05:52:22;6.00;;;2.15;;
24151;SDS011;12311;50.866;4.332;2022-11-15T05:54:52;8.32;;;1.80;;
24151;SDS011;12311;50.866;4.332;2022-11-15T05:57:19;3.15;;;1.58;;
24151;SDS011;12311;50.866;4.332;2022-11-15T05:59:45;3.47;;;1.65;;
24151;SDS011;12311;50.866;4.332;2022-11-15T06:02:10;10.70;;;2.35;;
24151;SDS011;12311;50.866;4.332;2022-11-15T06:04:36;7.10;;;1.55;;
24151;SDS011;12311;50.866;4.332;2022-11-15T06:07:02;6.22;;;2.40;;
24151;SDS011;12311;50.866;4.332;2022-11-15T06:09:27;2.53;;;1.23;;
24151;SDS011;12311;50.866;4.332;2022-11-15T06:11:53;5.00;;;1.95;;
24151;SDS011;12311;50.866;4.332;2022-11-15T06:14:19;1.85;;;1.27;;
24151;SDS011;12311;50.866;4.332;2022-11-15T06:16:44;6.32;;;1.95;;
24151;SDS011;12311;50.866;4.332;2022-11-15T06:19:10;4.35;;;2.00;;
24151;SDS011;12311;50.866;4.332;2022-11-15T06:21:36;6.28;;;1.75;;
24151;SDS011;12311;50.866;4.332;2022-11-15T06:24:01;2.85;;;2.08;;
24151;SDS011;12311;50.866;4.332;2022-11-15T06:26:27;8.77;;;2.15;;
24151;SDS011;12311;50.866;4.332;2022-11-15T06:28:53;5.00;;;2.42;;
24151;SDS011;12311;50.866;4.332;2022-11-15T06:31:18;7.55;;;1.67;;
24151;SDS011;12311;50.866;4.332;2022-11-15T06:33:44;10.18;;;2.35;;
24151;SDS011;12311;50.866;4.332;2022-11-15T06:36:11;5.30;;;2.22;;
24151;SDS011;12311;50.866;4.332;2022-11-15T06:38:38;2.22;;;1.63;;
24151;SDS011;12311;50.866;4.332;2022-11-15T06:41:05;3.35;;;1.95;;
24151;SDS011;12311;50.866;4.332;2022-11-15T06:43:33;6.78;;;2.25;;
24151;SDS011;12311;50.866;4.332;2022-11-15T06:46:00;11.23;;;2.33;;
24151;SDS011;12311;50.866;4.332;2022-11-15T06:48:27;7.85;;;1.83;;
24151;SDS011;12311;50.866;4.332;2022-11-15T06:50:54;2.97;;;1.52;;
24151;SDS011;12311;50.866;4.332;2022-11-15T06:53:22;4.55;;;2.35;;
24151;SDS011;12311;50.866;4.332;2022-11-15T06:55:48;4.40;;;1.85;;
24151;SDS011;12311;50.866;4.332;2022-11-15T06:58:14;3.80;;;1.70;;
24151;SDS011;12311;50.866;4.332;2022-11-15T07:00:40;3.20;;;1.40;;
24151;SDS011;12311;50.866;4.332;2022-11-15T07:03:06;11.23;;;1.85;;
24151;SDS011;12311;50.866;4.332;2022-11-15T07:05:32;3.03;;;2.35;;
24151;SDS011;12311;50.866;4.332;2022-11-15T07:07:58;5.05;;;1.70;;
24151;SDS011;12311;50.866;4.332;2022-11-15T07:10:24;9.73;;;1.92;;
24151;SDS011;12311;50.866;4.332;2022-11-15T07:12:51;6.15;;;1.52;;
24151;SDS011;12311;50.866;4.332;2022-11-15T07:15:17;3.50;;;1.50;;
24151;SDS011;12311;50.866;4.332;2022-11-15T07:17:44;2.05;;;1.52;;
24151;SDS011;12311;50.866;4.332;2022-11-15T07:20:10;3.45;;;1.73;;
24151;SDS011;12311;50.866;4.332;2022-11-15T07:22:36;3.75;;;2.03;;
24151;SDS011;12311;50.866;4.332;2022-11-15T07:25:02;2.47;;;1.48;;
24151;SDS011;12311;50.866;4.332;2022-11-15T07:27:28;3.95;;;2.05;;
24151;SDS011;12311;50.866;4.332;2022-11-15T07:29:53;3.35;;;1.80;;
24151;SDS011;12311;50.866;4.332;2022-11-15T07:32:19;2.42;;;1.90;;
24151;SDS011;12311;50.866;4.332;2022-11-15T07:34:45;3.42;;;1.63;;
24151;SDS011;12311;50.866;4.332;2022-11-15T07:37:11;10.40;;;1.80;;
24151;SDS011;12311;50.866;4.332;2022-11-15T07:39:37;3.65;;;1.75;;
24151;SDS011;12311;50.866;4.332;2022-11-15T07:42:03;7.47;;;1.77;;
24151;SDS011;12311;50.866;4.332;2022-11-15T07:44:47;4.45;;;1.35;;
24151;SDS011;12311;50.866;4.332;2022-11-15T07:47:13;5.18;;;1.88;;
24151;SDS011;12311;50.866;4.332;2022-11-15T07:49:38;7.47;;;1.77;;
24151;SDS011;12311;50.866;4.332;2022-11-15T07:52:04;1.90;;;1.40;;
24151;SDS011;12311;50.866;4.332;2022-11-15T07:54:30;3.33;;;1.60;;
24151;SDS011;12311;50.866;4.332;2022-11-15T07:56:55;6.30;;;2.22;;
24151;SDS011;12311;50.866;4.332;2022-11-15T07:59:21;3.00;;;1.63;;
24151;SDS011;12311;50.866;4.332;2022-11-15T08:01:46;4.90;;;1.83;;
24151;SDS011;12311;50.866;4.332;2022-11-15T08:04:12;12.43;;;2.60;;
24151;SDS011;12311;50.866;4.332;2022-11-15T08:06:38;2.33;;;1.60;;
24151;SDS011;12311;50.866;4.332;2022-11-15T08:09:03;6.00;;;1.45;;
24151;SDS011;12311;50.866;4.332;2022-11-15T08:11:29;4.60;;;1.52;;
24151;SDS011;12311;50.866;4.332;2022-11-15T08:13:55;4.35;;;1.85;;
24151;SDS011;12311;50.866;4.332;2022-11-15T08:16:20;3.05;;;1.13;;
24151;SDS011;12311;50.866;4.332;2022-11-15T08:18:46;2.15;;;1.15;;
24151;SDS011;12311;50.866;4.332;2022-11-15T08:21:12;2.40;;;1.25;;
24151;SDS011;12311;50.866;4.332;2022-11-15T08:23:42;2.08;;;1.10;;
24151;SDS011;12311;50.866;4.332;2022-11-15T08:26:08;3.53;;;1.45;;
24151;SDS011;12311;50.866;4.332;2022-11-15T08:28:34;6.97;;;1.75;;
24151;SDS011;12311;50.866;4.332;2022-11-15T08:31:00;5.10;;;1.10;;
24151;SDS011;12311;50.866;4.332;2022-11-15T08:33:26;10.63;;;1.95;;
24151;SDS011;12311;50.866;4.332;2022-11-15T08:35:55;1.65;;;1.10;;
24151;SDS011;12311;50.866;4.332;2022-11-15T08:38:25;3.97;;;1.35;;
24151;SDS011;12311;50.866;4.332;2022-11-15T08:40:51;2.90;;;1.33;;
24151;SDS011;12311;50.866;4.332;2022-11-15T08:43:18;5.85;;;1.80;;
24151;SDS011;12311;50.866;4.332;2022-11-15T08:45:44;5.07;;;1.08;;
24151;SDS011;12311;50.866;4.332;2022-11-15T08:48:10;1.58;;;1.20;;
24151;SDS011;12311;50.866;4.332;2022-11-15T08:50:36;1.10;;;0.90;;
24151;SDS011;12311;50.866;4.332;2022-11-15T08:53:08;3.10;;;1.13;;
24151;SDS011;12311;50.866;4.332;2022-11-15T08:55:37;3.90;;;1.00;;
24151;SDS011;12311;50.866;4.332;2022-11-15T08:58:04;2.88;;;1.00;;
24151;SDS011;12311;50.866;4.332;2022-11-15T09:00:30;7.47;;;0.98;;
24151;SDS011;12311;50.866;4.332;2022-11-15T09:02:55;3.45;;;1.00;;
24151;SDS011;12311;50.866;4.332;2022-11-15T09:05:21;1.13;;;0.75;;
24151;SDS011;12311;50.866;4.332;2022-11-15T09:07:47;4.88;;;1.23;;
24151;SDS011;12311;50.866;4.332;2022-11-15T09:10:17;2.08;;;0.90;;
24151;SDS011;12311;50.866;4.332;2022-11-15T09:12:43;0.85;;;0.70;;
24151;SDS011;12311;50.866;4.332;2022-11-15T09:15:08;1.38;;;0.98;;
24151;SDS011;12311;50.866;4.332;2022-11-15T09:17:34;3.10;;;1.17;;
24151;SDS011;12311;50.866;4.332;2022-11-15T09:20:00;2.20;;;1.35;;
24151;SDS011;12311;50.866;4.332;2022-11-15T09:22:25;2.38;;;1.17;;
24151;SDS011;12311;50.866;4.332;2022-11-15T09:24:51;1.30;;;0.90;;
24151;SDS011;12311;50.866;4.332;2022-11-15T09:27:17;6.65;;;1.23;;
24151;SDS011;12311;50.866;4.332;2022-11-15T09:29:42;0.90;;;0.73;;
24151;SDS011;12311;50.866;4.332;2022-11-15T09:32:08;3.60;;;1.10;;
24151;SDS011;12311;50.866;4.332;2022-11-15T09:34:34;1.48;;;0.95;;
24151;SDS011;12311;50.866;4.332;2022-11-15T09:37:00;3.20;;;1.38;;
24151;SDS011;12311;50.866;4.332;2022-11-15T09:39:26;2.28;;;0.77;;
24151;SDS011;12311;50.866;4.332;2022-11-15T09:49:39;1.23;;;1.10;;
24151;SDS011;12311;50.866;4.332;2022-11-15T09:52:06;1.40;;;1.13;;
24151;SDS011;12311;50.866;4.332;2022-11-15T09:54:34;1.00;;;0.68;;
24151;SDS011;12311;50.866;4.332;2022-11-15T10:05:16;4.93;;;1.10;;
24151;SDS011;12311;50.866;4.332;2022-11-15T10:10:39;1.02;;;0.57;;
24151;SDS011;12311;50.866;4.332;2022-11-15T10:13:28;0.65;;;0.40;;
24151;SDS011;12311;50.866;4.332;2022-11-15T10:15:56;4.03;;;0.80;;
24151;SDS011;12311;50.866;4.332;2022-11-15T10:18:38;0.95;;;0.45;;
24151;SDS011;12311;50.866;4.332;2022-11-15T10:21:37;1.23;;;0.88;;
24151;SDS011;12311;50.866;4.332;2022-11-15T10:24:23;0.95;;;0.60;;
24151;SDS011;12311;50.866;4.332;2022-11-15T10:26:53;4.10;;;1.08;;
24151;SDS011;12311;50.866;4.332;2022-11-15T10:29:20;6.22;;;0.70;;
24151;SDS011;12311;50.866;4.332;2022-11-15T10:31:47;1.75;;;0.55;;
24151;SDS011;12311;50.866;4.332;2022-11-15T10:34:14;1.60;;;0.50;;
24151;SDS011;12311;50.866;4.332;2022-11-15T10:36:55;6.65;;;0.98;;
24151;SDS011;12311;50.866;4.332;2022-11-15T10:39:23;8.13;;;1.30;;
24151;SDS011;12311;50.866;4.332;2022-11-15T10:41:49;7.07;;;1.05;;
24151;SDS011;12311;50.866;4.332;2022-11-15T10:47:23;0.68;;;0.52;;
24151;SDS011;12311;50.866;4.332;2022-11-15T10:49:55;6.13;;;0.82;;
24151;SDS011;12311;50.866;4.332;2022-11-15T10:52:22;3.10;;;0.88;;
24151;SDS011;12311;50.866;4.332;2022-11-15T10:57:26;2.13;;;0.82;;
24151;SDS011;12311;50.866;4.332;2022-11-15T10:59:55;0.80;;;0.50;;
24151;SDS011;12311;50.866;4.332;2022-11-15T11:05:01;1.65;;;1.20;;
24151;SDS011;12311;50.866;4.332;2022-11-15T11:07:29;2.83;;;0.95;;
24151;SDS011;12311;50.866;4.332;2022-11-15T11:09:58;1.08;;;0.65;;
24151;SDS011;12311;50.866;4.332;2022-11-15T11:12:28;5.40;;;0.60;;
24151;SDS011;12311;50.866;4.332;2022-11-15T11:14:57;1.88;;;0.70;;
24151;SDS011;12311;50.866;4.332;2022-11-15T11:17:36;1.77;;;0.40;;
24151;SDS011;12311;50.866;4.332;2022-11-15T11:20:10;2.50;;;0.93;;
24151;SDS011;12311;50.866;4.332;2022-11-15T11:34:15;0.70;;;0.55;;
24151;SDS011;12311;50.866;4.332;2022-11-15T11:39:21;3.58;;;0.57;;
24151;SDS011;12311;50.866;4.332;2022-11-15T11:44:55;0.70;;;0.50;;
24151;SDS011;12311;50.866;4.332;2022-11-15T11:50:37;8.15;;;1.92;;
24151;SDS011;12311;50.866;4.332;2022-11-15T11:55:54;0.77;;;0.60;;
24151;SDS011;12311;50.866;4.332;2022-11-15T11:58:38;6.78;;;0.70;;
24151;SDS011;12311;50.866;4.332;2022-11-15T12:11:33;0.68;;;0.57;;
24151;SDS011;12311;50.866;4.332;2022-11-15T12:17:10;4.03;;;0.70;;
24151;SDS011;12311;50.866;4.332;2022-11-15T12:19:37;1.10;;;0.60;;
24151;SDS011;12311;50.866;4.332;2022-11-15T12:22:12;1.58;;;0.80;;
24151;SDS011;12311;50.866;4.332;2022-11-15T12:30:19;1.63;;;0.80;;
24151;SDS011;12311;50.866;4.332;2022-11-15T12:35:23;1.70;;;1.37;;
24151;SDS011;12311;50.866;4.332;2022-11-15T12:37:52;1.77;;;0.55;;
24151;SDS011;12311;50.866;4.332;2022-11-15T12:45:35;5.10;;;0.90;;
24151;SDS011;12311;50.866;4.332;2022-11-15T12:50:53;1.85;;;0.77;;
24151;SDS011;12311;50.866;4.332;2022-11-15T12:58:43;6.32;;;1.25;;
24151;SDS011;12311;50.866;4.332;2022-11-15T13:12:01;1.75;;;0.90;;
24151;SDS011;12311;50.866;4.332;2022-11-15T13:17:03;2.10;;;1.25;;
24151;SDS011;12311;50.866;4.332;2022-11-15T13:19:41;1.35;;;0.95;;
24151;SDS011;12311;50.866;4.332;2022-11-15T13:22:10;1.38;;;0.82;;
24151;SDS011;12311;50.866;4.332;2022-11-15T13:24:55;1.05;;;0.60;;
24151;SDS011;12311;50.866;4.332;2022-11-15T13:27:21;0.88;;;0.82;;
24151;SDS011;12311;50.866;4.332;2022-11-15T13:29:47;2.80;;;1.27;;
24151;SDS011;12311;50.866;4.332;2022-11-15T13:32:13;0.95;;;0.70;;
24151;SDS011;12311;50.866;4.332;2022-11-15T13:34:44;1.35;;;0.60;;
24151;SDS011;12311;50.866;4.332;2022-11-15T13:39:47;1.88;;;0.93;;
24151;SDS011;12311;50.866;4.332;2022-11-15T13:42:15;0.40;;;0.35;;
24151;SDS011;12311;50.866;4.332;2022-11-15T13:44:54;0.70;;;0.50;;
24151;SDS011;12311;50.866;4.332;2022-11-15T13:47:21;1.73;;;0.57;;
24151;SDS011;12311;50.866;4.332;2022-11-15T13:49:52;0.55;;;0.50;;
24151;SDS011;12311;50.866;4.332;2022-11-15T13:52:17;2.67;;;0.98;;
24151;SDS011;12311;50.866;4.332;2022-11-15T13:54:48;2.83;;;0.80;;
24151;SDS011;12311;50.866;4.332;2022-11-15T13:57:25;2.80;;;0.70;;
24151;SDS011;12311;50.866;4.332;2022-11-15T14:00:06;1.17;;;0.50;;
24151;SDS011;12311;50.866;4.332;2022-11-15T14:02:50;8.35;;;0.70;;
24151;SDS011;12311;50.866;4.332;2022-11-15T14:05:17;1.20;;;0.55;;
24151;SDS011;12311;50.866;4.332;2022-11-15T14:07:53;1.08;;;0.90;;
24151;SDS011;12311;50.866;4.332;2022-11-15T14:13:01;4.97;;;0.80;;
24151;SDS011;12311;50.866;4.332;2022-11-15T14:18:00;2.13;;;0.73;;
24151;SDS011;12311;50.866;4.332;2022-11-15T14:23:00;0.75;;;0.50;;
24151;SDS011;12311;50.866;4.332;2022-11-15T14:25:37;3.80;;;1.52;;
24151;SDS011;12311;50.866;4.332;2022-11-15T14:28:10;1.35;;;0.80;;
24151;SDS011;12311;50.866;4.332;2022-11-15T14:30:49;1.33;;;0.57;;
24151;SDS011;12311;50.866;4.332;2022-11-15T14:33:32;0.80;;;0.60;;
24151;SDS011;12311;50.866;4.332;2022-11-15T14:36:05;1.17;;;0.65;;
24151;SDS011;12311;50.866;4.332;2022-11-15T14:38:38;4.32;;;1.10;;
24151;SDS011;12311;50.866;4.332;2022-11-15T14:41:04;1.75;;;0.57;;
24151;SDS011;12311;50.866;4.332;2022-11-15T14:43:30;2.42;;;1.23;;
24151;SDS011;12311;50.866;4.332;2022-11-15T14:45:56;1.00;;;0.70;;
24151;SDS011;12311;50.866;4.332;2022-11-15T14:48:22;11.60;;;0.80;;
24151;SDS011;12311;50.866;4.332;2022-11-15T14:50:48;1.20;;;0.77;;
24151;SDS011;12311;50.866;4.332;2022-11-15T14:53:14;1.05;;;0.65;;
24151;SDS011;12311;50.866;4.332;2022-11-15T14:55:41;1.00;;;0.80;;
24151;SDS011;12311;50.866;4.332;2022-11-15T14:58:07;0.80;;;0.70;;
24151;SDS011;12311;50.866;4.332;2022-11-15T15:00:34;2.05;;;0.88;;
24151;SDS011;12311;50.866;4.332;2022-11-15T15:03:01;1.77;;;0.80;;
24151;SDS011;12311;50.866;4.332;2022-11-15T15:05:32;3.85;;;0.82;;
24151;SDS011;12311;50.866;4.332;2022-11-15T15:07:59;1.88;;;0.80;;
24151;SDS011;12311;50.866;4.332;2022-11-15T15:10:25;2.35;;;1.20;;
24151;SDS011;12311;50.866;4.332;2022-11-15T15:12:55;3.38;;;1.25;;
24151;SDS011;12311;50.866;4.332;2022-11-15T15:15:25;1.00;;;0.70;;
24151;SDS011;12311;50.866;4.332;2022-11-15T15:17:54;1.65;;;0.90;;
24151;SDS011;12311;50.866;4.332;2022-11-15T15:20:20;1.63;;;0.95;;
24151;SDS011;12311;50.866;4.332;2022-11-15T15:22:45;1.85;;;1.02;;
24151;SDS011;12311;50.866;4.332;2022-11-15T15:25:26;3.20;;;0.60;;
24151;SDS011;12311;50.866;4.332;2022-11-15T15:27:57;3.70;;;1.05;;
24151;SDS011;12311;50.866;4.332;2022-11-15T15:30:24;1.45;;;0.90;;
24151;SDS011;12311;50.866;4.332;2022-11-15T15:32:50;2.97;;;1.20;;
24151;SDS011;12311;50.866;4.332;2022-11-15T15:35:16;2.58;;;1.00;;
24151;SDS011;12311;50.866;4.332;2022-11-15T15:37:43;3.22;;;1.10;;
24151;SDS011;12311;50.866;4.332;2022-11-15T15:40:14;3.45;;;1.35;;
24151;SDS011;12311;50.866;4.332;2022-11-15T15:42:47;1.92;;;0.95;;
24151;SDS011;12311;50.866;4.332;2022-11-15T15:45:13;1.60;;;1.15;;
24151;SDS011;12311;50.866;4.332;2022-11-15T15:47:40;3.70;;;1.15;;
24151;SDS011;12311;50.866;4.332;2022-11-15T15:50:17;2.03;;;1.00;;
24151;SDS011;12311;50.866;4.332;2022-11-15T15:52:45;3.28;;;1.35;;
24151;SDS011;12311;50.866;4.332;2022-11-15T15:55:10;2.78;;;0.93;;
24151;SDS011;12311;50.866;4.332;2022-11-15T15:57:36;1.00;;;0.85;;
24151;SDS011;12311;50.866;4.332;2022-11-15T16:00:03;1.73;;;1.05;;
24151;SDS011;12311;50.866;4.332;2022-11-15T16:02:29;5.47;;;1.77;;
24151;SDS011;12311;50.866;4.332;2022-11-15T16:04:55;3.03;;;1.08;;
24151;SDS011;12311;50.866;4.332;2022-11-15T16:07:22;7.20;;;1.50;;
24151;SDS011;12311;50.866;4.332;2022-11-15T16:09:50;3.58;;;1.30;;
24151;SDS011;12311;50.866;4.332;2022-11-15T16:12:25;1.83;;;1.00;;
24151;SDS011;12311;50.866;4.332;2022-11-15T16:14:52;3.28;;;1.58;;
24151;SDS011;12311;50.866;4.332;2022-11-15T16:17:19;3.40;;;1.20;;
24151;SDS011;12311;50.866;4.332;2022-11-15T16:19:47;5.07;;;1.50;;
24151;SDS011;12311;50.866;4.332;2022-11-15T16:22:13;3.70;;;1.55;;
24151;SDS011;12311;50.866;4.332;2022-11-15T16:24:38;2.85;;;1.17;;
24151;SDS011;12311;50.866;4.332;2022-11-15T16:27:04;2.40;;;1.25;;
24151;SDS011;12311;50.866;4.332;2022-11-15T16:29:30;2.75;;;1.67;;
24151;SDS011;12311;50.866;4.332;2022-11-15T16:31:55;3.42;;;1.52;;
24151;SDS011;12311;50.866;4.332;2022-11-15T16:34:21;4.60;;;1.52;;
24151;SDS011;12311;50.866;4.332;2022-11-15T16:36:47;3.15;;;1.77;;
24151;SDS011;12311;50.866;4.332;2022-11-15T16:39:20;2.33;;;1.30;;
24151;SDS011;12311;50.866;4.332;2022-11-15T16:41:47;3.65;;;1.25;;
24151;SDS011;12311;50.866;4.332;2022-11-15T16:44:13;2.97;;;1.58;;
24151;SDS011;12311;50.866;4.332;2022-11-15T16:46:42;5.03;;;2.67;;
24151;SDS011;12311;50.866;4.332;2022-11-15T16:49:14;7.53;;;2.42;;
24151;SDS011;12311;50.866;4.332;2022-11-15T16:51:40;2.50;;;1.00;;
24151;SDS011;12311;50.866;4.332;2022-11-15T16:54:08;3.00;;;1.67;;
24151;SDS011;12311;50.866;4.332;2022-11-15T16:56:34;3.58;;;1.27;;
24151;SDS011;12311;50.866;4.332;2022-11-15T16:59:00;1.52;;;0.85;;
24151;SDS011;12311;50.866;4.332;2022-11-15T17:01:27;3.88;;;1.50;;
24151;SDS011;12311;50.866;4.332;2022-11-15T17:03:54;1.65;;;1.08;;
24151;SDS011;12311;50.866;4.332;2022-11-15T17:06:21;3.88;;;1.50;;
24151;SDS011;12311;50.866;4.332;2022-11-15T17:08:47;2.72;;;1.15;;
24151;SDS011;12311;50.866;4.332;2022-11-15T17:11:14;2.70;;;1.50;;
24151;SDS011;12311;50.866;4.332;2022-11-15T17:13:41;2.97;;;1.60;;
24151;SDS011;12311;50.866;4.332;2022-11-15T17:16:08;2.92;;;1.80;;
24151;SDS011;12311;50.866;4.332;2022-11-15T17:18:37;3.33;;;1.63;;